Time;durP1;ratioP1;P1;durP2;ratioP2;P2;SDS_P1;SDS_P2;PMS_P1;PMS_P2;Temp;Humidity;BMP_temperature;BMP_pressure;BME280_temperature;BME280_humidity;BME280_pressure;Samples;Min_cycle;Max_cycle;Signal;HPM_P1;HPM_P2
2023/10/24 00:01:10;;;;;;;3.60;2.28;;;;;;;;;;4930430;28;20051;-77
2023/10/24 00:03:35;;;;;;;2.15;1.80;;;;;;;;;;4935017;28;20539;-77
2023/10/24 00:06:03;;;;;;;2.90;1.73;;;;;;;;;;4919942;28;20046;-76
2023/10/24 00:08:28;;;;;;;4.82;2.20;;;;;;;;;;4923141;28;20117;-77
2023/10/24 00:11:04;;;;;;;5.32;2.00;;;;;;;;;;4935023;28;20066;-77
2023/10/24 00:13:30;;;;;;;2.28;1.58;;;;;;;;;;4929344;28;20039;-77
2023/10/24 00:15:59;;;;;;;1.58;1.42;;;;;;;;;;4934827;28;20050;-77
2023/10/24 00:18:25;;;;;;;3.05;1.77;;;;;;;;;;4940094;28;20035;-78
2023/10/24 00:20:51;;;;;;;2.97;1.63;;;;;;;;;;4934427;28;20038;-78
2023/10/24 00:23:16;;;;;;;4.75;1.90;;;;;;;;;;4946871;28;20043;-77
2023/10/24 00:25:41;;;;;;;3.13;2.03;;;;;;;;;;4939147;28;20047;-77
2023/10/24 00:28:07;;;;;;;2.55;1.38;;;;;;;;;;4944999;28;20086;-77
2023/10/24 00:30:32;;;;;;;1.75;1.38;;;;;;;;;;4962453;28;20102;-77
2023/10/24 00:32:58;;;;;;;3.67;2.25;;;;;;;;;;4944828;28;20043;-78
2023/10/24 00:35:23;;;;;;;1.38;1.20;;;;;;;;;;4923138;28;20040;-77
2023/10/24 00:37:49;;;;;;;2.03;0.90;;;;;;;;;;4940718;28;20043;-77
2023/10/24 00:40:14;;;;;;;1.65;1.00;;;;;;;;;;4933943;28;20551;-78
2023/10/24 00:42:39;;;;;;;4.80;1.70;;;;;;;;;;4922069;28;20047;-77
2023/10/24 00:45:06;;;;;;;1.58;1.30;;;;;;;;;;4931018;28;20069;-77
2023/10/24 00:47:32;;;;;;;1.50;1.40;;;;;;;;;;4934532;28;20043;-77
2023/10/24 00:49:57;;;;;;;4.50;1.60;;;;;;;;;;4923031;28;20047;-77
2023/10/24 00:52:23;;;;;;;2.75;1.75;;;;;;;;;;4937889;28;20450;-77
2023/10/24 00:54:49;;;;;;;0.80;0.80;;;;;;;;;;4935904;28;20766;-77
2023/10/24 00:57:14;;;;;;;1.88;1.52;;;;;;;;;;4938736;28;20037;-77
2023/10/24 00:59:41;;;;;;;1.77;1.45;;;;;;;;;;4923748;28;20105;-77
2023/10/24 01:02:08;;;;;;;2.67;1.55;;;;;;;;;;4938782;28;20047;-77
2023/10/24 01:04:34;;;;;;;2.17;1.60;;;;;;;;;;4919286;28;20110;-77
2023/10/24 01:06:59;;;;;;;2.47;2.17;;;;;;;;;;4934005;28;20138;-77
2023/10/24 01:09:25;;;;;;;2.08;1.55;;;;;;;;;;4944491;28;20043;-78
2023/10/24 01:11:53;;;;;;;3.30;1.55;;;;;;;;;;4934970;28;20046;-78
2023/10/24 01:14:18;;;;;;;2.25;1.45;;;;;;;;;;4929722;28;20039;-77
2023/10/24 01:16:45;;;;;;;2.83;1.80;;;;;;;;;;4933868;28;20621;-77
2023/10/24 01:19:11;;;;;;;1.67;1.52;;;;;;;;;;4924675;28;20046;-78
2023/10/24 01:21:44;;;;;;;5.00;1.88;;;;;;;;;;4933482;28;20035;-77
2023/10/24 01:24:13;;;;;;;3.10;2.10;;;;;;;;;;4934040;28;20037;-77
2023/10/24 01:26:40;;;;;;;4.72;2.13;;;;;;;;;;4933887;28;20044;-77
2023/10/24 01:29:05;;;;;;;2.63;1.52;;;;;;;;;;4934121;28;20046;-77
2023/10/24 01:31:31;;;;;;;1.63;0.90;;;;;;;;;;4927879;28;20579;-77
2023/10/24 01:33:57;;;;;;;1.80;1.05;;;;;;;;;;4946716;28;20035;-77
2023/10/24 01:36:22;;;;;;;5.05;2.00;;;;;;;;;;4933600;28;20047;-77
2023/10/24 01:38:47;;;;;;;4.80;2.30;;;;;;;;;;4937160;28;20051;-77
2023/10/24 01:41:13;;;;;;;3.17;2.03;;;;;;;;;;4942471;28;20034;-77
2023/10/24 01:43:38;;;;;;;1.92;1.05;;;;;;;;;;4938097;28;20040;-78
2023/10/24 01:46:04;;;;;;;3.03;1.40;;;;;;;;;;4923832;28;20047;-78
2023/10/24 01:48:29;;;;;;;2.72;1.27;;;;;;;;;;4946624;28;20047;-77
2023/10/24 01:50:54;;;;;;;4.93;2.10;;;;;;;;;;4940568;28;20047;-78
2023/10/24 01:53:20;;;;;;;1.63;1.10;;;;;;;;;;4943926;28;20093;-77
2023/10/24 01:55:45;;;;;;;1.67;1.20;;;;;;;;;;4945571;28;20122;-77
2023/10/24 01:58:11;;;;;;;2.67;1.80;;;;;;;;;;4946319;28;20750;-77
2023/10/24 02:00:36;;;;;;;2.67;1.20;;;;;;;;;;4936371;28;20105;-77
2023/10/24 02:03:01;;;;;;;1.58;1.20;;;;;;;;;;4936989;28;20035;-77
2023/10/24 02:05:27;;;;;;;3.22;1.73;;;;;;;;;;4922047;28;20031;-77
2023/10/24 02:07:52;;;;;;;3.10;2.65;;;;;;;;;;4944397;28;20035;-77
2023/10/24 02:10:18;;;;;;;1.55;1.10;;;;;;;;;;4935057;28;20105;-77
2023/10/24 02:12:45;;;;;;;1.73;1.25;;;;;;;;;;4937611;28;20426;-78
2023/10/24 02:15:11;;;;;;;3.25;1.48;;;;;;;;;;4929483;28;20063;-78
2023/10/24 02:17:45;;;;;;;6.60;2.20;;;;;;;;;;4926773;28;20151;-78
2023/10/24 02:20:11;;;;;;;2.80;1.95;;;;;;;;;;4922248;28;20157;-78
2023/10/24 02:22:36;;;;;;;3.08;1.80;;;;;;;;;;4946520;28;20685;-77
2023/10/24 02:25:01;;;;;;;2.17;1.20;;;;;;;;;;4946154;28;20053;-77
2023/10/24 02:27:27;;;;;;;2.65;1.42;;;;;;;;;;4929993;28;20054;-78
2023/10/24 02:29:52;;;;;;;0.90;0.90;;;;;;;;;;4938748;28;20486;-77
2023/10/24 02:32:18;;;;;;;3.65;1.55;;;;;;;;;;4935303;28;20047;-77
2023/10/24 02:34:48;;;;;;;2.75;1.70;;;;;;;;;;4942642;28;20070;-77
2023/10/24 02:37:13;;;;;;;2.22;1.17;;;;;;;;;;4940569;28;20113;-77
2023/10/24 02:39:38;;;;;;;2.13;1.17;;;;;;;;;;4941308;28;20135;-77
2023/10/24 02:42:04;;;;;;;2.28;1.35;;;;;;;;;;4926359;28;20061;-77
2023/10/24 02:44:29;;;;;;;4.47;2.42;;;;;;;;;;4944194;28;20038;-76
2023/10/24 02:46:54;;;;;;;3.88;1.60;;;;;;;;;;4930745;28;20658;-77
2023/10/24 02:49:20;;;;;;;1.92;1.60;;;;;;;;;;4955161;28;20529;-76
2023/10/24 02:51:45;;;;;;;2.72;1.10;;;;;;;;;;4980351;28;20054;-76
2023/10/24 02:54:11;;;;;;;2.50;1.80;;;;;;;;;;4940243;28;20039;-76
2023/10/24 02:56:36;;;;;;;4.78;2.42;;;;;;;;;;4930343;28;20101;-76
2023/10/24 02:59:02;;;;;;;3.72;1.73;;;;;;;;;;4935804;28;20047;-77
2023/10/24 03:01:27;;;;;;;2.80;2.03;;;;;;;;;;4935520;28;20411;-77
2023/10/24 03:03:53;;;;;;;2.70;1.40;;;;;;;;;;4937577;28;20035;-76
2023/10/24 03:06:18;;;;;;;2.97;1.55;;;;;;;;;;4926524;28;20101;-76
2023/10/24 03:08:44;;;;;;;1.52;1.10;;;;;;;;;;4940510;28;20069;-77
2023/10/24 03:11:10;;;;;;;2.05;1.45;;;;;;;;;;4931424;28;20039;-77
2023/10/24 03:13:36;;;;;;;4.15;2.25;;;;;;;;;;4951044;28;20039;-76
2023/10/24 03:16:03;;;;;;;4.30;2.05;;;;;;;;;;4939138;28;20047;-77
2023/10/24 03:18:30;;;;;;;3.97;1.75;;;;;;;;;;4940525;28;20052;-77
2023/10/24 03:20:56;;;;;;;1.85;1.30;;;;;;;;;;4975118;28;20123;-76
2023/10/24 03:23:21;;;;;;;2.90;2.17;;;;;;;;;;4941623;28;20130;-77
2023/10/24 03:25:47;;;;;;;6.05;2.92;;;;;;;;;;4935205;28;20039;-77
2023/10/24 03:28:14;;;;;;;3.65;2.33;;;;;;;;;;4936202;28;20063;-77
2023/10/24 03:30:39;;;;;;;3.70;2.47;;;;;;;;;;4935989;28;20043;-77
2023/10/24 03:33:04;;;;;;;4.75;2.65;;;;;;;;;;4935210;28;20039;-77
2023/10/24 03:35:33;;;;;;;4.13;1.67;;;;;;;;;;4940134;28;20043;-77
2023/10/24 03:37:58;;;;;;;4.25;2.78;;;;;;;;;;4928340;28;20051;-77
2023/10/24 03:40:26;;;;;;;4.75;2.47;;;;;;;;;;4933863;28;20043;-77
2023/10/24 03:42:53;;;;;;;1.52;1.17;;;;;;;;;;4940647;28;20041;-78
2023/10/24 03:45:18;;;;;;;2.50;1.48;;;;;;;;;;4935564;28;20543;-77
2023/10/24 03:47:44;;;;;;;2.47;1.52;;;;;;;;;;4925376;28;20035;-77
2023/10/24 03:50:09;;;;;;;4.80;2.58;;;;;;;;;;4932174;28;20043;-77
2023/10/24 03:52:34;;;;;;;4.22;2.38;;;;;;;;;;4929871;28;20121;-77
2023/10/24 03:55:00;;;;;;;4.28;2.17;;;;;;;;;;4943180;28;20066;-76
2023/10/24 03:57:25;;;;;;;5.55;2.95;;;;;;;;;;4939787;28;20059;-77
2023/10/24 03:59:51;;;;;;;2.15;1.52;;;;;;;;;;4935824;28;20602;-77
2023/10/24 04:02:16;;;;;;;3.83;2.00;;;;;;;;;;4924136;28;20064;-77
2023/10/24 04:04:41;;;;;;;3.50;2.50;;;;;;;;;;4940314;28;20126;-77
2023/10/24 04:07:07;;;;;;;4.50;1.98;;;;;;;;;;4928156;28;20032;-77
2023/10/24 04:09:33;;;;;;;3.08;2.35;;;;;;;;;;4926858;28;20042;-76
2023/10/24 04:11:58;;;;;;;4.80;2.45;;;;;;;;;;4939422;28;20031;-77
2023/10/24 04:14:23;;;;;;;3.90;2.88;;;;;;;;;;4939119;28;20035;-77
2023/10/24 04:16:50;;;;;;;2.85;1.75;;;;;;;;;;4941598;28;20142;-78
2023/10/24 04:19:16;;;;;;;2.10;1.58;;;;;;;;;;4965222;28;20045;-76
2023/10/24 04:21:41;;;;;;;3.67;2.17;;;;;;;;;;4931840;28;20139;-77
2023/10/24 04:24:07;;;;;;;2.13;1.73;;;;;;;;;;4946429;28;20035;-77
2023/10/24 04:26:34;;;;;;;1.55;1.30;;;;;;;;;;4961558;28;20041;-77
2023/10/24 04:28:59;;;;;;;1.35;1.25;;;;;;;;;;4934624;28;20037;-77
2023/10/24 04:31:25;;;;;;;2.22;1.75;;;;;;;;;;4932639;28;20035;-77
2023/10/24 04:33:50;;;;;;;2.00;1.20;;;;;;;;;;4938106;28;20488;-78
2023/10/24 04:36:16;;;;;;;6.82;1.90;;;;;;;;;;4928858;28;20035;-78
2023/10/24 04:38:42;;;;;;;4.40;2.28;;;;;;;;;;4939423;28;20134;-77
2023/10/24 04:41:07;;;;;;;2.03;1.60;;;;;;;;;;4932310;28;20094;-77
2023/10/24 04:43:32;;;;;;;2.25;1.23;;;;;;;;;;4930775;28;20041;-77
2023/10/24 04:45:58;;;;;;;3.03;1.30;;;;;;;;;;4933416;28;20123;-77
2023/10/24 04:48:24;;;;;;;1.38;0.93;;;;;;;;;;4928184;28;20043;-77
2023/10/24 04:50:50;;;;;;;2.35;1.60;;;;;;;;;;4928748;28;20105;-77
2023/10/24 04:53:15;;;;;;;1.80;1.33;;;;;;;;;;4927450;28;20037;-76
2023/10/24 04:55:42;;;;;;;2.33;1.60;;;;;;;;;;4952420;28;20617;-77
2023/10/24 04:58:07;;;;;;;2.08;1.67;;;;;;;;;;4940729;28;20112;-76
2023/10/24 05:00:33;;;;;;;1.35;1.15;;;;;;;;;;4927087;28;20539;-76
2023/10/24 05:02:58;;;;;;;3.70;2.03;;;;;;;;;;4936390;28;20039;-79
2023/10/24 05:05:24;;;;;;;2.13;1.17;;;;;;;;;;4910655;28;20047;-77
2023/10/24 05:07:49;;;;;;;1.85;1.23;;;;;;;;;;4932118;28;20122;-77
2023/10/24 05:10:15;;;;;;;2.28;1.40;;;;;;;;;;4941900;28;20036;-78
2023/10/24 05:12:40;;;;;;;2.50;1.10;;;;;;;;;;4937489;28;20046;-76
2023/10/24 05:15:06;;;;;;;3.85;2.00;;;;;;;;;;4936889;28;20035;-78
2023/10/24 05:17:33;;;;;;;2.75;1.88;;;;;;;;;;4950528;28;20047;-79
2023/10/24 05:20:03;;;;;;;2.15;1.60;;;;;;;;;;4929756;28;20036;-78
2023/10/24 05:22:28;;;;;;;2.03;1.20;;;;;;;;;;4957000;28;20055;-77
2023/10/24 05:24:54;;;;;;;1.60;1.45;;;;;;;;;;4935983;28;20074;-77
2023/10/24 05:27:19;;;;;;;2.92;1.60;;;;;;;;;;4960895;28;20582;-77
2023/10/24 05:29:45;;;;;;;3.83;1.95;;;;;;;;;;4942452;28;20126;-78
2023/10/24 05:32:10;;;;;;;2.67;1.70;;;;;;;;;;4933732;28;20131;-77
2023/10/24 05:34:36;;;;;;;1.58;1.02;;;;;;;;;;4936411;28;20562;-77
2023/10/24 05:37:01;;;;;;;1.98;1.45;;;;;;;;;;4941313;28;20133;-77
2023/10/24 05:39:28;;;;;;;3.28;1.85;;;;;;;;;;4945182;28;20041;-76
2023/10/24 05:41:54;;;;;;;2.13;1.10;;;;;;;;;;4942478;28;20097;-78
2023/10/24 05:44:19;;;;;;;2.25;1.55;;;;;;;;;;4942816;28;20047;-77
2023/10/24 05:46:45;;;;;;;2.20;1.48;;;;;;;;;;4927521;28;20039;-77
2023/10/24 05:49:10;;;;;;;2.90;1.50;;;;;;;;;;4939643;28;20046;-77
2023/10/24 05:51:35;;;;;;;2.47;1.50;;;;;;;;;;4950869;28;20036;-76
2023/10/24 05:54:01;;;;;;;3.60;1.10;;;;;;;;;;4969234;28;20055;-79
2023/10/24 05:56:26;;;;;;;3.58;1.80;;;;;;;;;;4956898;28;20047;-77
2023/10/24 05:58:54;;;;;;;1.30;1.05;;;;;;;;;;4959130;28;20590;-77
2023/10/24 06:01:20;;;;;;;3.28;2.00;;;;;;;;;;4927500;28;20458;-77
2023/10/24 06:03:46;;;;;;;3.30;1.30;;;;;;;;;;4936820;28;20035;-77
2023/10/24 06:06:11;;;;;;;4.43;1.95;;;;;;;;;;4941934;28;20051;-78
2023/10/24 06:08:38;;;;;;;2.67;1.95;;;;;;;;;;4969235;28;20049;-77
2023/10/24 06:11:04;;;;;;;2.50;1.55;;;;;;;;;;4953545;28;20443;-77
2023/10/24 06:13:30;;;;;;;1.35;1.13;;;;;;;;;;4937891;28;20047;-76
2023/10/24 06:16:05;;;;;;;1.48;1.15;;;;;;;;;;4948204;28;20047;-77
2023/10/24 06:18:31;;;;;;;4.32;2.80;;;;;;;;;;4938111;28;20074;-77
2023/10/24 06:20:56;;;;;;;2.15;1.65;;;;;;;;;;4968127;28;20059;-77
2023/10/24 06:23:23;;;;;;;1.50;1.40;;;;;;;;;;4941414;28;20612;-77
2023/10/24 06:25:48;;;;;;;1.50;1.40;;;;;;;;;;4950670;28;20069;-78
2023/10/24 06:28:14;;;;;;;7.55;3.15;;;;;;;;;;4933206;28;20035;-77
2023/10/24 06:30:39;;;;;;;4.63;3.55;;;;;;;;;;4939831;28;20411;-77
2023/10/24 06:33:04;;;;;;;2.47;1.88;;;;;;;;;;4933825;28;20122;-77
2023/10/24 06:35:30;;;;;;;5.78;2.92;;;;;;;;;;4937431;28;20588;-78
2023/10/24 06:37:56;;;;;;;2.97;2.08;;;;;;;;;;4946803;28;20507;-77
2023/10/24 06:40:22;;;;;;;2.75;1.80;;;;;;;;;;4925865;28;20046;-77
2023/10/24 06:42:51;;;;;;;3.35;1.83;;;;;;;;;;4953224;28;20049;-78
2023/10/24 06:45:16;;;;;;;4.90;3.10;;;;;;;;;;4978490;28;20039;-77
2023/10/24 06:47:42;;;;;;;2.25;1.60;;;;;;;;;;4943412;28;20140;-77
2023/10/24 06:50:07;;;;;;;2.30;2.10;;;;;;;;;;4993833;28;20081;-78
2023/10/24 06:52:33;;;;;;;2.47;1.70;;;;;;;;;;4986684;28;20182;-77
2023/10/24 06:54:59;;;;;;;5.65;3.40;;;;;;;;;;4946563;28;20039;-78
2023/10/24 06:57:24;;;;;;;5.15;2.72;;;;;;;;;;4944068;28;20031;-77
2023/10/24 06:59:50;;;;;;;2.85;2.13;;;;;;;;;;4962806;28;20115;-79
2023/10/24 07:02:17;;;;;;;2.30;2.10;;;;;;;;;;4978842;28;20044;-77
2023/10/24 07:04:42;;;;;;;1.95;1.50;;;;;;;;;;4952150;28;20720;-77
2023/10/24 07:07:08;;;;;;;2.13;1.90;;;;;;;;;;4956474;28;20042;-77
2023/10/24 07:09:33;;;;;;;3.00;2.08;;;;;;;;;;4953432;28;20042;-77
2023/10/24 07:11:58;;;;;;;6.20;4.03;;;;;;;;;;4942911;28;20585;-77
2023/10/24 07:14:24;;;;;;;4.93;2.97;;;;;;;;;;4957955;28;20085;-78
2023/10/24 07:16:51;;;;;;;3.80;2.70;;;;;;;;;;4968325;28;20063;-78
2023/10/24 07:19:17;;;;;;;8.23;4.97;;;;;;;;;;4982716;28;20051;-77
2023/10/24 07:21:42;;;;;;;4.47;2.85;;;;;;;;;;4974314;28;20039;-78
2023/10/24 07:24:08;;;;;;;3.03;2.35;;;;;;;;;;4951719;28;20079;-78
2023/10/24 07:26:34;;;;;;;4.38;2.78;;;;;;;;;;4932811;28;20061;-79
2023/10/24 07:28:59;;;;;;;3.80;2.72;;;;;;;;;;4943927;28;20036;-77
2023/10/24 07:31:24;;;;;;;2.80;1.98;;;;;;;;;;4929635;28;20047;-78
2023/10/24 07:33:50;;;;;;;2.72;2.30;;;;;;;;;;4958704;28;20059;-80
2023/10/24 07:36:15;;;;;;;1.90;1.70;;;;;;;;;;4957092;28;20815;-77
2023/10/24 07:38:41;;;;;;;2.38;1.60;;;;;;;;;;4963406;28;20454;-76
2023/10/24 07:41:06;;;;;;;2.40;1.40;;;;;;;;;;4952105;28;20050;-78
2023/10/24 07:43:32;;;;;;;4.65;3.97;;;;;;;;;;4954583;28;20043;-78
2023/10/24 07:45:58;;;;;;;2.20;1.70;;;;;;;;;;4959960;28;20070;-77
2023/10/24 07:48:23;;;;;;;6.18;3.97;;;;;;;;;;4937981;28;20039;-78
2023/10/24 07:50:53;;;;;;;2.15;1.80;;;;;;;;;;4932553;28;20047;-77
2023/10/24 07:53:20;;;;;;;4.97;2.55;;;;;;;;;;4949184;28;20039;-78
2023/10/24 07:55:46;;;;;;;3.85;2.42;;;;;;;;;;4940282;28;20441;-77
2023/10/24 07:58:11;;;;;;;6.22;4.07;;;;;;;;;;4944202;28;20071;-77
2023/10/24 08:00:37;;;;;;;6.85;4.32;;;;;;;;;;4953546;28;20073;-77
2023/10/24 08:03:02;;;;;;;7.00;4.13;;;;;;;;;;4944594;28;20058;-77
2023/10/24 08:05:27;;;;;;;10.20;5.65;;;;;;;;;;4950118;28;20043;-77
2023/10/24 08:07:53;;;;;;;8.70;6.07;;;;;;;;;;4938512;28;20036;-77
2023/10/24 08:10:18;;;;;;;15.82;8.55;;;;;;;;;;4951624;28;20486;-78
2023/10/24 08:12:44;;;;;;;6.93;4.82;;;;;;;;;;4948516;28;20034;-77
2023/10/24 08:15:09;;;;;;;4.72;3.10;;;;;;;;;;4936092;28;20031;-77
2023/10/24 08:17:35;;;;;;;3.47;3.15;;;;;;;;;;4927906;28;20573;-77
2023/10/24 08:20:00;;;;;;;4.40;2.88;;;;;;;;;;4948999;28;20444;-80
2023/10/24 08:22:26;;;;;;;4.75;3.28;;;;;;;;;;4948127;28;20040;-77
2023/10/24 08:24:51;;;;;;;3.17;2.88;;;;;;;;;;4951378;28;20060;-77
2023/10/24 08:27:17;;;;;;;2.35;1.83;;;;;;;;;;4958596;28;20395;-77
2023/10/24 08:29:42;;;;;;;7.93;4.97;;;;;;;;;;4946686;28;20043;-77
2023/10/24 08:32:08;;;;;;;5.68;4.25;;;;;;;;;;4935258;28;20039;-78
2023/10/24 08:34:36;;;;;;;8.93;4.85;;;;;;;;;;4940895;28;20039;-77
2023/10/24 08:37:03;;;;;;;6.03;4.68;;;;;;;;;;4962491;28;20122;-77
2023/10/24 08:39:28;;;;;;;11.07;7.20;;;;;;;;;;4978488;28;20153;-77
2023/10/24 08:41:57;;;;;;;6.32;4.63;;;;;;;;;;4956620;28;20123;-78
2023/10/24 08:44:23;;;;;;;10.18;7.13;;;;;;;;;;4940825;28;20538;-77
2023/10/24 08:46:49;;;;;;;14.20;8.48;;;;;;;;;;4950213;28;20047;-77
2023/10/24 08:49:16;;;;;;;4.75;3.63;;;;;;;;;;4952744;28;20425;-77
2023/10/24 08:51:42;;;;;;;11.10;7.68;;;;;;;;;;4955171;28;20044;-78
2023/10/24 08:54:07;;;;;;;4.00;2.63;;;;;;;;;;4973200;28;20089;-78
2023/10/24 08:56:35;;;;;;;4.90;3.60;;;;;;;;;;4960941;28;20043;-78
2023/10/24 08:59:00;;;;;;;5.05;3.80;;;;;;;;;;4964575;28;20157;-77
2023/10/24 09:01:27;;;;;;;6.93;3.33;;;;;;;;;;4937060;28;20558;-77
2023/10/24 09:03:53;;;;;;;3.45;2.00;;;;;;;;;;4928415;28;20039;-77
2023/10/24 09:06:21;;;;;;;2.78;2.45;;;;;;;;;;4986947;28;20036;-77
2023/10/24 09:08:48;;;;;;;6.47;3.25;;;;;;;;;;4957462;28;20107;-77
2023/10/24 09:11:14;;;;;;;6.65;4.28;;;;;;;;;;4961664;28;20037;-77
2023/10/24 09:13:39;;;;;;;6.55;4.10;;;;;;;;;;4970500;28;20039;-77
2023/10/24 09:16:09;;;;;;;6.13;4.68;;;;;;;;;;4935162;28;20453;-79
2023/10/24 09:18:38;;;;;;;5.80;4.00;;;;;;;;;;4948599;28;20054;-77
2023/10/24 09:21:06;;;;;;;6.88;4.53;;;;;;;;;;4946712;28;20087;-77
2023/10/24 09:23:33;;;;;;;7.22;5.47;;;;;;;;;;4983447;28;20132;-77
2023/10/24 09:26:07;;;;;;;9.68;4.88;;;;;;;;;;4979505;28;20381;-77
2023/10/24 09:28:33;;;;;;;6.75;4.07;;;;;;;;;;4949107;28;20395;-78
2023/10/24 09:31:00;;;;;;;7.32;4.80;;;;;;;;;;4940977;28;20656;-77
2023/10/24 09:33:27;;;;;;;4.47;3.30;;;;;;;;;;4940815;28;20035;-77
2023/10/24 09:35:52;;;;;;;11.63;4.45;;;;;;;;;;4945025;28;20078;-77
2023/10/24 09:38:21;;;;;;;5.05;3.15;;;;;;;;;;4936200;28;20043;-78
2023/10/24 09:40:47;;;;;;;9.32;4.30;;;;;;;;;;4963251;28;20061;-78
2023/10/24 09:43:19;;;;;;;5.78;3.63;;;;;;;;;;4937867;28;20494;-79
2023/10/24 09:45:46;;;;;;;5.43;2.72;;;;;;;;;;4953377;28;20044;-77
2023/10/24 09:48:14;;;;;;;3.05;2.33;;;;;;;;;;4936921;28;20069;-77
2023/10/24 09:50:41;;;;;;;5.65;3.17;;;;;;;;;;4919764;28;20048;-77
2023/10/24 09:53:07;;;;;;;3.70;2.95;;;;;;;;;;4938307;28;20543;-77
2023/10/24 09:55:34;;;;;;;3.35;2.13;;;;;;;;;;4949731;28;20054;-78
2023/10/24 09:58:01;;;;;;;6.65;2.95;;;;;;;;;;4950601;28;20089;-78
2023/10/24 10:00:26;;;;;;;3.83;2.50;;;;;;;;;;4940725;28;20454;-76
2023/10/24 10:02:56;;;;;;;2.90;2.10;;;;;;;;;;4948949;28;20043;-77
2023/10/24 10:05:23;;;;;;;2.75;2.40;;;;;;;;;;4949775;28;20546;-77
2023/10/24 10:07:49;;;;;;;3.13;2.30;;;;;;;;;;4947227;28;20081;-77
2023/10/24 10:10:16;;;;;;;4.15;2.28;;;;;;;;;;4952430;28;20047;-78
2023/10/24 10:12:42;;;;;;;4.93;3.40;;;;;;;;;;4936861;28;20843;-77
2023/10/24 10:15:29;;;;;;;2.65;2.10;;;;;;;;;;4941910;28;20142;-77
2023/10/24 10:18:24;;;;;;;2.38;1.90;;;;;;;;;;4954719;28;20132;-80
2023/10/24 10:21:12;;;;;;;3.88;2.10;;;;;;;;;;4940087;28;20122;-78
2023/10/24 10:23:57;;;;;;;3.50;2.17;;;;;;;;;;4943699;28;20039;-78
2023/10/24 10:26:33;;;;;;;3.90;2.70;;;;;;;;;;4951299;28;20073;-79
2023/10/24 10:29:12;;;;;;;3.50;3.03;;;;;;;;;;4949355;28;20081;-78
2023/10/24 10:31:52;;;;;;;4.93;3.10;;;;;;;;;;4951314;28;20403;-79
2023/10/24 10:34:17;;;;;;;3.97;1.80;;;;;;;;;;4957266;28;20094;-78
2023/10/24 10:36:53;;;;;;;5.63;3.03;;;;;;;;;;4989726;28;20499;-78
2023/10/24 10:39:18;;;;;;;3.55;2.53;;;;;;;;;;4960481;28;20120;-78
2023/10/24 10:41:45;;;;;;;3.05;2.75;;;;;;;;;;4935561;28;20039;-78
2023/10/24 10:44:40;;;;;;;3.40;2.90;;;;;;;;;;4952860;28;20047;-78
2023/10/24 10:47:07;;;;;;;5.30;2.90;;;;;;;;;;4910270;28;20052;-79
2023/10/24 10:49:47;;;;;;;4.60;2.75;;;;;;;;;;4918570;28;20048;-78
2023/10/24 10:52:24;;;;;;;3.72;3.25;;;;;;;;;;4956131;28;20369;-78
2023/10/24 10:54:59;;;;;;;2.40;1.73;;;;;;;;;;4973552;28;20042;-79
2023/10/24 10:57:32;;;;;;;4.13;3.05;;;;;;;;;;4952914;28;20059;-79
2023/10/24 11:00:06;;;;;;;7.18;3.15;;;;;;;;;;4961443;28;20519;-79
2023/10/24 11:02:57;;;;;;;4.50;3.35;;;;;;;;;;4966630;28;20084;-79
2023/10/24 11:05:49;;;;;;;5.57;3.15;;;;;;;;;;4968016;28;20690;-77
2023/10/24 11:08:19;;;;;;;5.15;3.00;;;;;;;;;;4940018;28;20687;-77
2023/10/24 11:10:54;;;;;;;3.03;2.42;;;;;;;;;;4954402;28;20039;-78
2023/10/24 11:13:33;;;;;;;4.22;3.25;;;;;;;;;;4947006;28;20043;-79
2023/10/24 11:16:01;;;;;;;2.05;1.83;;;;;;;;;;4953240;28;20031;-78
2023/10/24 11:18:26;;;;;;;2.42;1.75;;;;;;;;;;4963795;28;20039;-78
2023/10/24 11:20:53;;;;;;;3.65;2.80;;;;;;;;;;4937671;28;20447;-78
2023/10/24 11:23:18;;;;;;;2.40;2.03;;;;;;;;;;4944129;28;20050;-77
2023/10/24 11:25:44;;;;;;;3.10;2.80;;;;;;;;;;4948395;28;20518;-78
2023/10/24 11:28:09;;;;;;;5.10;2.90;;;;;;;;;;4953409;28;20031;-78
2023/10/24 11:30:35;;;;;;;3.83;3.47;;;;;;;;;;4941054;28;20430;-78
2023/10/24 11:33:03;;;;;;;7.30;3.20;;;;;;;;;;4951463;28;20078;-79
2023/10/24 11:35:28;;;;;;;6.22;2.80;;;;;;;;;;4944555;28;20075;-79
2023/10/24 11:37:54;;;;;;;3.35;2.58;;;;;;;;;;4955940;28;20523;-80
2023/10/24 11:40:19;;;;;;;3.63;2.80;;;;;;;;;;4927295;28;20651;-81
2023/10/24 11:42:44;;;;;;;1.52;1.42;;;;;;;;;;4949419;28;20579;-79
2023/10/24 11:45:10;;;;;;;2.42;1.88;;;;;;;;;;4970695;28;20151;-78
2023/10/24 11:47:35;;;;;;;3.17;2.22;;;;;;;;;;4964182;28;20058;-78
2023/10/24 11:50:01;;;;;;;2.28;1.70;;;;;;;;;;4938350;28;20039;-80
2023/10/24 11:52:26;;;;;;;1.77;1.40;;;;;;;;;;4942255;28;20043;-79
2023/10/24 11:54:52;;;;;;;4.82;2.90;;;;;;;;;;4935261;28;20040;-80
2023/10/24 11:57:25;;;;;;;4.22;2.47;;;;;;;;;;4945889;28;20064;-78
2023/10/24 11:59:51;;;;;;;2.58;1.60;;;;;;;;;;4932037;28;20669;-80
2023/10/24 12:02:17;;;;;;;1.63;1.52;;;;;;;;;;4922724;28;20047;-80
2023/10/24 12:04:49;;;;;;;1.63;1.52;;;;;;;;;;4949572;28;20049;-79
2023/10/24 12:07:14;;;;;;;2.95;2.50;;;;;;;;;;4942477;28;20039;-80
2023/10/24 12:09:39;;;;;;;4.03;2.53;;;;;;;;;;4971724;28;20033;-80
2023/10/24 12:12:05;;;;;;;3.05;1.98;;;;;;;;;;4950397;28;20110;-79
2023/10/24 12:14:32;;;;;;;5.70;2.38;;;;;;;;;;4955818;28;20153;-79
2023/10/24 12:16:58;;;;;;;3.47;2.35;;;;;;;;;;4948038;28;20419;-80
2023/10/24 12:19:24;;;;;;;4.53;2.53;;;;;;;;;;4930965;28;20146;-79
2023/10/24 12:21:49;;;;;;;3.60;2.40;;;;;;;;;;4956286;28;20118;-79
2023/10/24 12:24:15;;;;;;;3.50;2.50;;;;;;;;;;4950470;28;20108;-80
2023/10/24 12:26:41;;;;;;;2.67;2.28;;;;;;;;;;4960019;28;20035;-80
2023/10/24 12:29:10;;;;;;;2.58;2.38;;;;;;;;;;4955072;28;20628;-79
2023/10/24 12:31:36;;;;;;;3.70;2.28;;;;;;;;;;4930505;28;20047;-79
2023/10/24 12:34:02;;;;;;;2.13;1.92;;;;;;;;;;4947998;28;20039;-79
2023/10/24 12:36:27;;;;;;;2.17;1.92;;;;;;;;;;4947770;28;20118;-79
2023/10/24 12:38:53;;;;;;;3.08;2.40;;;;;;;;;;4929184;28;20065;-79
2023/10/24 12:41:18;;;;;;;5.25;2.80;;;;;;;;;;4964321;28;20134;-80
2023/10/24 12:43:44;;;;;;;4.32;2.22;;;;;;;;;;4943564;28;20066;-79
2023/10/24 12:46:09;;;;;;;4.10;2.08;;;;;;;;;;4933644;28;20051;-80
2023/10/24 12:48:35;;;;;;;3.92;2.38;;;;;;;;;;4910501;28;20062;-80
2023/10/24 12:51:00;;;;;;;2.58;2.20;;;;;;;;;;4940988;28;20042;-79
2023/10/24 12:53:26;;;;;;;2.95;2.40;;;;;;;;;;4958325;28;20039;-79
2023/10/24 12:55:52;;;;;;;3.03;1.77;;;;;;;;;;4933322;28;20576;-80
2023/10/24 12:58:17;;;;;;;3.47;2.25;;;;;;;;;;4918532;28;20085;-80
2023/10/24 13:00:45;;;;;;;2.85;2.40;;;;;;;;;;4946617;28;20035;-79
2023/10/24 13:03:10;;;;;;;4.93;2.17;;;;;;;;;;4949945;28;20045;-79
2023/10/24 13:05:36;;;;;;;3.28;1.98;;;;;;;;;;4955396;28;20103;-81
2023/10/24 13:08:02;;;;;;;2.05;1.85;;;;;;;;;;4953066;28;20047;-79
2023/10/24 13:10:27;;;;;;;2.50;1.80;;;;;;;;;;4959949;28;20539;-80
2023/10/24 13:12:53;;;;;;;3.17;1.88;;;;;;;;;;4962039;28;20158;-80
2023/10/24 13:15:19;;;;;;;2.90;2.10;;;;;;;;;;4940850;28;20051;-79
2023/10/24 13:17:44;;;;;;;3.08;2.05;;;;;;;;;;4961767;28;20047;-80
2023/10/24 13:20:11;;;;;;;2.50;2.08;;;;;;;;;;4951570;28;20047;-79
2023/10/24 13:22:36;;;;;;;3.28;2.13;;;;;;;;;;4945163;28;20039;-79
2023/10/24 13:25:01;;;;;;;4.90;2.30;;;;;;;;;;4922610;28;20070;-79
2023/10/24 13:27:27;;;;;;;2.88;2.40;;;;;;;;;;4939577;28;20129;-79
2023/10/24 13:29:52;;;;;;;4.63;2.58;;;;;;;;;;4931323;28;20645;-79
2023/10/24 13:32:17;;;;;;;3.97;2.10;;;;;;;;;;4947166;28;20082;-80
2023/10/24 13:34:43;;;;;;;3.30;2.65;;;;;;;;;;4955924;28;20522;-79
2023/10/24 13:37:09;;;;;;;3.28;2.53;;;;;;;;;;4948535;28;20037;-80
2023/10/24 13:39:34;;;;;;;4.78;2.90;;;;;;;;;;4942374;28;20051;-79
2023/10/24 13:41:59;;;;;;;7.28;4.18;;;;;;;;;;4975220;28;20043;-79
2023/10/24 13:44:26;;;;;;;6.93;4.82;;;;;;;;;;4952012;28;20048;-79
2023/10/24 13:46:52;;;;;;;6.50;4.53;;;;;;;;;;4947856;28;20055;-80
2023/10/24 13:49:17;;;;;;;7.32;5.13;;;;;;;;;;4931040;28;20086;-78
2023/10/24 13:51:43;;;;;;;5.95;4.20;;;;;;;;;;4938981;28;20047;-79
2023/10/24 13:54:08;;;;;;;3.97;2.63;;;;;;;;;;4940860;28;20076;-78
2023/10/24 13:56:34;;;;;;;13.43;8.65;;;;;;;;;;4948564;28;20048;-80
2023/10/24 13:58:59;;;;;;;6.22;4.35;;;;;;;;;;4965686;28;20090;-80
2023/10/24 14:01:27;;;;;;;8.77;5.85;;;;;;;;;;4942157;28;20047;-79
2023/10/24 14:03:52;;;;;;;7.63;5.22;;;;;;;;;;4947480;28;20538;-81
2023/10/24 14:06:18;;;;;;;3.60;2.72;;;;;;;;;;4949249;28;20047;-81
2023/10/24 14:08:45;;;;;;;4.53;3.20;;;;;;;;;;4968581;28;20044;-79
2023/10/24 14:11:10;;;;;;;4.32;2.40;;;;;;;;;;4903087;28;20047;-81
2023/10/24 14:13:36;;;;;;;3.50;2.50;;;;;;;;;;4931189;28;20069;-81
2023/10/24 14:16:02;;;;;;;4.70;3.10;;;;;;;;;;4953542;28;20559;-79
2023/10/24 14:18:28;;;;;;;7.25;4.50;;;;;;;;;;4952395;28;20405;-79
2023/10/24 14:20:53;;;;;;;5.55;3.30;;;;;;;;;;4959264;28;20121;-80
2023/10/24 14:23:19;;;;;;;3.22;2.97;;;;;;;;;;4949106;28;20047;-80
2023/10/24 14:25:44;;;;;;;3.55;2.60;;;;;;;;;;4935155;28;20040;-79
2023/10/24 14:28:10;;;;;;;3.75;3.45;;;;;;;;;;4953752;28;20037;-79
2023/10/24 14:30:36;;;;;;;2.97;2.70;;;;;;;;;;4945786;28;20081;-81
2023/10/24 14:33:02;;;;;;;3.13;2.53;;;;;;;;;;4972234;28;20047;-81
2023/10/24 14:35:28;;;;;;;2.70;2.50;;;;;;;;;;4910334;28;20033;-79
2023/10/24 14:37:53;;;;;;;2.75;2.38;;;;;;;;;;4938818;28;20042;-79
2023/10/24 14:40:18;;;;;;;3.30;2.53;;;;;;;;;;4936117;28;20039;-80